Time;durP1;ratioP1;P1;durP2;ratioP2;P2;SDS_P1;SDS_P2;PMS_P1;PMS_P2;Temp;Humidity;BMP_temperature;BMP_pressure;BME280_temperature;BME280_humidity;BME280_pressure;Samples;Min_cycle;Max_cycle;Signal;HPM_P1;HPM_P2
2024/03/18 00:01:11;;;;;;;10.35;5.13;;;5.60;99.90;;;;;;5027439;28;20041;-77
2024/03/18 00:03:39;;;;;;;10.88;5.43;;;5.60;99.90;;;;;;5049198;28;20053;-77
2024/03/18 00:06:08;;;;;;;11.68;5.30;;;5.50;99.90;;;;;;5050233;28;20052;-81
2024/03/18 00:08:36;;;;;;;13.32;6.68;;;5.40;99.90;;;;;;5049369;28;20057;-78
2024/03/18 00:11:03;;;;;;;11.00;5.13;;;5.40;99.90;;;;;;5034790;28;20042;-77
2024/03/18 00:13:31;;;;;;;12.50;6.03;;;5.50;99.90;;;;;;5051049;28;20037;-78
2024/03/18 00:15:59;;;;;;;10.80;5.55;;;5.40;99.90;;;;;;5036975;28;20017;-79
2024/03/18 00:18:26;;;;;;;16.65;6.43;;;5.40;99.90;;;;;;5036223;28;20033;-79
2024/03/18 00:20:53;;;;;;;20.13;7.18;;;5.40;99.90;;;;;;5038607;28;20037;-79
2024/03/18 00:23:23;;;;;;;20.33;6.75;;;5.40;99.90;;;;;;5052141;28;20037;-81
2024/03/18 00:25:50;;;;;;;23.15;7.07;;;5.40;99.90;;;;;;5036318;28;20037;-79
2024/03/18 00:28:18;;;;;;;16.83;6.55;;;5.40;99.90;;;;;;5025444;28;20041;-79
2024/03/18 00:30:46;;;;;;;19.95;8.60;;;5.30;99.90;;;;;;5009015;28;20291;-78
2024/03/18 00:33:14;;;;;;;22.45;7.25;;;5.30;99.90;;;;;;5006942;28;20144;-78
2024/03/18 00:35:41;;;;;;;15.48;7.15;;;5.30;99.90;;;;;;5026670;28;20037;-79
2024/03/18 00:38:10;;;;;;;14.75;6.75;;;5.20;99.90;;;;;;5027674;28;20095;-78
2024/03/18 00:40:38;;;;;;;17.23;6.68;;;5.20;99.90;;;;;;5005198;28;20488;-78
2024/03/18 00:43:05;;;;;;;14.10;6.68;;;5.20;99.90;;;;;;5010441;28;20041;-79
2024/03/18 00:45:32;;;;;;;12.27;6.15;;;5.20;99.90;;;;;;5008783;28;20029;-78
2024/03/18 00:48:00;;;;;;;20.48;9.23;;;5.20;99.90;;;;;;5025679;28;20060;-78
2024/03/18 00:50:28;;;;;;;19.58;9.05;;;5.20;99.90;;;;;;5020429;28;20491;-79
2024/03/18 00:52:55;;;;;;;20.67;8.45;;;5.10;99.90;;;;;;5025859;28;20488;-79
2024/03/18 00:55:23;;;;;;;16.40;7.13;;;5.10;99.90;;;;;;5024937;28;20064;-78
2024/03/18 00:57:52;;;;;;;13.88;6.13;;;5.10;99.90;;;;;;5024105;28;20041;-78
2024/03/18 01:00:20;;;;;;;16.48;5.82;;;5.10;99.90;;;;;;5008316;28;20045;-78
2024/03/18 01:02:46;;;;;;;13.48;5.10;;;5.10;99.90;;;;;;5022756;28;20055;-78
2024/03/18 01:05:14;;;;;;;21.70;6.85;;;5.10;99.90;;;;;;5025705;28;20446;-78
2024/03/18 01:07:43;;;;;;;20.73;6.15;;;5.10;99.90;;;;;;5010084;28;20075;-78
2024/03/18 01:10:11;;;;;;;16.17;5.95;;;5.10;99.90;;;;;;5024862;28;20038;-79
2024/03/18 01:12:38;;;;;;;16.38;6.55;;;5.10;99.90;;;;;;5029281;28;20073;-79
2024/03/18 01:15:08;;;;;;;16.08;5.13;;;5.10;99.90;;;;;;5022318;28;20041;-78
2024/03/18 01:17:37;;;;;;;15.10;5.30;;;5.20;99.90;;;;;;5027304;28;20100;-78
2024/03/18 01:20:09;;;;;;;11.15;4.50;;;5.10;99.90;;;;;;5025811;28;20037;-78
2024/03/18 01:22:37;;;;;;;13.20;4.15;;;5.10;99.90;;;;;;5028105;28;20041;-78
2024/03/18 01:25:05;;;;;;;15.30;4.18;;;5.10;99.90;;;;;;5040337;28;20041;-78
2024/03/18 01:27:33;;;;;;;10.73;3.95;;;5.00;99.90;;;;;;5010338;28;20083;-78
2024/03/18 01:30:01;;;;;;;11.70;3.83;;;5.00;99.90;;;;;;5012144;28;20447;-78
2024/03/18 01:32:29;;;;;;;8.95;4.22;;;5.00;99.90;;;;;;5023176;28;20173;-78
2024/03/18 01:34:57;;;;;;;11.63;4.63;;;5.00;99.90;;;;;;5010069;28;20041;-78
2024/03/18 01:37:24;;;;;;;7.70;4.03;;;4.90;99.90;;;;;;5030156;28;20060;-78
2024/03/18 01:39:52;;;;;;;8.60;3.50;;;4.90;99.90;;;;;;5029274;28;20080;-78
2024/03/18 01:42:20;;;;;;;10.38;4.00;;;5.00;99.90;;;;;;5025610;28;20041;-78
2024/03/18 01:44:53;;;;;;;9.38;3.75;;;4.90;99.90;;;;;;5023072;28;20044;-78
2024/03/18 01:47:21;;;;;;;7.55;3.30;;;4.90;99.90;;;;;;5010220;28;20045;-78
2024/03/18 01:49:51;;;;;;;13.60;3.47;;;4.90;99.90;;;;;;5027120;28;20052;-79
2024/03/18 01:52:19;;;;;;;8.68;3.38;;;4.90;99.90;;;;;;5038916;28;20045;-78
2024/03/18 01:54:47;;;;;;;7.80;3.60;;;4.90;99.90;;;;;;5020507;28;20049;-78
2024/03/18 01:57:15;;;;;;;5.90;2.80;;;4.80;99.90;;;;;;5026049;28;20047;-78
2024/03/18 01:59:42;;;;;;;5.90;3.78;;;4.70;99.90;;;;;;5007409;28;20041;-78
2024/03/18 02:02:11;;;;;;;8.48;3.63;;;4.70;99.90;;;;;;5037872;28;20242;-78
2024/03/18 02:04:39;;;;;;;9.57;3.60;;;4.70;99.90;;;;;;5027335;28;20045;-78
2024/03/18 02:07:21;;;;;;;11.77;4.22;;;4.70;99.90;;;;;;5041393;28;20484;-79
2024/03/18 02:09:49;;;;;;;;;;;4.70;99.90;;;;;;5011578;28;20127;-78
2024/03/18 02:12:16;;;;;;;9.65;3.55;;;4.80;99.90;;;;;;5021156;28;19932;-78
2024/03/18 02:14:50;;;;;;;6.40;2.97;;;4.70;99.90;;;;;;5022459;28;20095;-79
2024/03/18 02:17:18;;;;;;;7.97;3.45;;;4.80;99.90;;;;;;5024946;28;20068;-79
2024/03/18 02:19:45;;;;;;;8.25;3.63;;;4.70;99.90;;;;;;5025066;28;20048;-78
2024/03/18 02:22:14;;;;;;;8.98;3.45;;;4.70;99.90;;;;;;5024216;28;20045;-78
2024/03/18 02:24:42;;;;;;;7.57;3.33;;;4.70;99.90;;;;;;5020056;28;20416;-78
2024/03/18 02:27:10;;;;;;;7.47;3.10;;;4.70;99.90;;;;;;5022106;28;20056;-78
2024/03/18 02:29:38;;;;;;;8.00;3.47;;;4.70;99.90;;;;;;5023085;28;20041;-78
2024/03/18 02:32:06;;;;;;;7.65;2.63;;;4.70;99.90;;;;;;5006575;28;20060;-78
2024/03/18 02:34:35;;;;;;;7.95;2.85;;;4.70;99.90;;;;;;5026115;28;20440;-78
2024/03/18 02:37:03;;;;;;;8.70;4.20;;;4.70;99.90;;;;;;5023485;28;20496;-78
2024/03/18 02:39:32;;;;;;;6.35;3.17;;;4.70;99.90;;;;;;5026219;28;20040;-78
2024/03/18 02:42:00;;;;;;;8.60;3.45;;;4.70;99.90;;;;;;5020385;28;20041;-78
2024/03/18 02:44:29;;;;;;;9.07;3.80;;;4.70;99.90;;;;;;5011495;28;20079;-76
2024/03/18 02:46:56;;;;;;;6.38;2.95;;;4.60;99.90;;;;;;5006992;28;20037;-75
2024/03/18 02:49:24;;;;;;;10.90;4.10;;;4.60;99.90;;;;;;5009359;28;20423;-74
2024/03/18 02:51:51;;;;;;;9.18;4.13;;;4.50;99.90;;;;;;5025815;28;20056;-74
2024/03/18 02:54:19;;;;;;;8.48;3.35;;;4.50;99.90;;;;;;5025524;28;20037;-74
2024/03/18 02:56:47;;;;;;;10.23;3.63;;;4.50;99.90;;;;;;5026093;28;20040;-76
2024/03/18 02:59:15;;;;;;;11.02;4.22;;;4.50;99.90;;;;;;5007772;28;20052;-74
2024/03/18 03:01:42;;;;;;;12.38;4.00;;;4.40;99.90;;;;;;5002860;28;20053;-75
2024/03/18 03:04:10;;;;;;;10.40;4.25;;;4.40;99.90;;;;;;5006681;28;20514;-74
2024/03/18 03:06:38;;;;;;;8.60;3.88;;;4.40;99.90;;;;;;5019288;28;20037;-75
2024/03/18 03:09:06;;;;;;;13.80;4.05;;;4.40;99.90;;;;;;5026260;28;20135;-76
2024/03/18 03:11:33;;;;;;;12.43;4.25;;;4.40;99.90;;;;;;5020273;28;20045;-76
2024/03/18 03:14:02;;;;;;;8.32;3.83;;;4.40;99.90;;;;;;5009843;28;20091;-74
2024/03/18 03:16:29;;;;;;;6.60;3.40;;;4.30;99.90;;;;;;5022456;28;20036;-75
2024/03/18 03:18:56;;;;;;;9.45;4.30;;;4.30;99.90;;;;;;5019334;28;20037;-76
2024/03/18 03:21:23;;;;;;;9.60;3.72;;;4.30;99.90;;;;;;5016138;28;20037;-75
2024/03/18 03:23:51;;;;;;;7.43;3.55;;;4.30;99.90;;;;;;5021962;28;20044;-74
2024/03/18 03:26:18;;;;;;;9.43;3.72;;;4.30;99.90;;;;;;5008838;28;20041;-74
2024/03/18 03:28:46;;;;;;;7.75;3.75;;;4.30;99.90;;;;;;5020360;28;20041;-74
2024/03/18 03:31:15;;;;;;;7.95;3.47;;;4.30;99.90;;;;;;5021565;28;20037;-77
2024/03/18 03:33:43;;;;;;;8.15;3.42;;;4.30;99.90;;;;;;5011337;28;20049;-74
2024/03/18 03:36:11;;;;;;;8.45;3.70;;;4.30;99.90;;;;;;5020500;28;20049;-74
2024/03/18 03:38:39;;;;;;;7.63;3.60;;;4.30;99.90;;;;;;5040228;28;20049;-74
2024/03/18 03:41:07;;;;;;;11.13;3.92;;;4.30;99.90;;;;;;5022412;28;20476;-75
2024/03/18 03:43:34;;;;;;;8.02;3.75;;;4.20;99.90;;;;;;5010219;28;20037;-76
2024/03/18 03:46:02;;;;;;;8.23;3.38;;;4.20;99.90;;;;;;5026216;28;20480;-74
2024/03/18 03:48:31;;;;;;;7.82;3.63;;;4.20;99.90;;;;;;5048061;28;20040;-74
2024/03/18 03:50:58;;;;;;;8.70;3.65;;;4.20;99.90;;;;;;5027148;28;20049;-74
2024/03/18 03:53:27;;;;;;;9.70;3.70;;;4.10;99.90;;;;;;5030002;28;20140;-77
2024/03/18 03:55:56;;;;;;;9.20;3.50;;;4.20;99.90;;;;;;5029216;28;20033;-74
2024/03/18 03:58:26;;;;;;;8.63;3.78;;;4.20;99.90;;;;;;5028515;28;20037;-75
2024/03/18 04:00:54;;;;;;;10.00;3.40;;;4.10;99.90;;;;;;5023941;28;20458;-75
2024/03/18 04:03:23;;;;;;;10.48;3.53;;;4.10;99.90;;;;;;5025471;28;20099;-75
2024/03/18 04:05:54;;;;;;;11.00;4.00;;;4.10;99.90;;;;;;5019137;28;20040;-75
2024/03/18 04:08:21;;;;;;;8.00;4.15;;;4.10;99.90;;;;;;5007283;28;20068;-75
2024/03/18 04:10:49;;;;;;;8.80;4.28;;;4.20;99.90;;;;;;5030517;28;20420;-76
2024/03/18 04:13:17;;;;;;;12.43;4.28;;;4.20;99.90;;;;;;5010350;28;20045;-75
2024/03/18 04:15:44;;;;;;;10.25;3.95;;;4.20;99.90;;;;;;5026390;28;20049;-75
2024/03/18 04:18:12;;;;;;;7.57;4.03;;;4.20;99.90;;;;;;5028520;28;20179;-75
2024/03/18 04:20:40;;;;;;;12.25;3.97;;;4.20;99.90;;;;;;5033370;28;20052;-77
2024/03/18 04:23:09;;;;;;;7.47;3.40;;;4.20;99.90;;;;;;5027930;28;20033;-75
2024/03/18 04:25:37;;;;;;;7.22;3.55;;;4.20;99.90;;;;;;5027330;28;20094;-75
2024/03/18 04:28:07;;;;;;;8.75;3.42;;;4.10;99.90;;;;;;5028013;28;20048;-76
2024/03/18 04:30:36;;;;;;;9.38;4.00;;;4.20;99.90;;;;;;5026977;28;20045;-75
2024/03/18 04:33:06;;;;;;;9.20;3.75;;;4.10;99.90;;;;;;5013101;28;20459;-75
2024/03/18 04:35:34;;;;;;;14.50;3.88;;;4.10;99.90;;;;;;5024809;28;20079;-74
2024/03/18 04:38:01;;;;;;;10.00;3.53;;;4.10;99.90;;;;;;5027773;28;20102;-77
2024/03/18 04:40:30;;;;;;;11.23;3.78;;;4.10;99.90;;;;;;5029465;28;20061;-75
2024/03/18 04:42:58;;;;;;;8.13;3.45;;;4.00;99.90;;;;;;5016945;28;20404;-75
2024/03/18 04:45:26;;;;;;;10.38;3.92;;;4.10;99.90;;;;;;5005932;28;20463;-75
2024/03/18 04:47:55;;;;;;;9.13;3.65;;;4.00;99.90;;;;;;5033976;28;20051;-75
2024/03/18 04:50:23;;;;;;;11.38;4.13;;;4.00;99.90;;;;;;5030769;28;20136;-76
2024/03/18 04:52:52;;;;;;;8.02;3.97;;;4.00;99.90;;;;;;5008004;28;20045;-75
2024/03/18 04:55:21;;;;;;;11.25;4.35;;;4.00;99.90;;;;;;5006656;28;20045;-76
2024/03/18 04:57:52;;;;;;;7.97;4.07;;;4.00;99.90;;;;;;5006338;28;20037;-77
2024/03/18 05:00:20;;;;;;;11.05;4.32;;;4.00;99.90;;;;;;5017444;28;20061;-75
2024/03/18 05:02:47;;;;;;;12.90;4.18;;;4.00;99.90;;;;;;5008514;28;20033;-75
2024/03/18 05:05:16;;;;;;;12.30;4.35;;;4.00;99.90;;;;;;5021100;28;20043;-77
2024/03/18 05:07:44;;;;;;;14.80;4.75;;;4.00;99.90;;;;;;5023218;28;20052;-76
2024/03/18 05:10:13;;;;;;;12.80;4.93;;;4.00;99.90;;;;;;5024576;28;20046;-76
2024/03/18 05:12:40;;;;;;;14.82;4.85;;;4.00;99.90;;;;;;5031309;28;20040;-76
2024/03/18 05:15:10;;;;;;;9.02;4.63;;;4.00;99.90;;;;;;5023562;28;20984;-76
2024/03/18 05:17:37;;;;;;;11.55;4.70;;;4.00;99.90;;;;;;5025298;28;20042;-75
2024/03/18 05:20:11;;;;;;;8.00;3.42;;;4.10;99.90;;;;;;5026192;28;20073;-76
2024/03/18 05:22:39;;;;;;;9.95;3.90;;;4.20;99.90;;;;;;5025469;28;20049;-75
2024/03/18 05:25:09;;;;;;;8.52;4.30;;;4.20;99.90;;;;;;5024871;28;20439;-75
2024/03/18 05:27:37;;;;;;;8.90;3.72;;;4.30;99.90;;;;;;5021332;28;20050;-75
2024/03/18 05:30:06;;;;;;;9.93;4.20;;;4.40;99.90;;;;;;5011663;28;20041;-75
2024/03/18 05:32:36;;;;;;;9.20;3.78;;;4.40;99.90;;;;;;5032110;28;20041;-75
2024/03/18 05:35:03;;;;;;;9.05;4.47;;;4.40;99.90;;;;;;5012879;28;20052;-75
2024/03/18 05:37:31;;;;;;;12.00;5.95;;;4.40;99.90;;;;;;5024483;28;20041;-75
2024/03/18 05:40:03;;;;;;;14.35;5.43;;;4.50;99.90;;;;;;5023094;28;20041;-75
2024/03/18 05:42:31;;;;;;;14.70;5.40;;;4.50;99.90;;;;;;5007215;28;20445;-76
2024/03/18 05:44:59;;;;;;;15.10;5.75;;;4.60;99.90;;;;;;5009399;28;20041;-76
2024/03/18 05:47:26;;;;;;;11.75;5.03;;;4.60;99.90;;;;;;5026471;28;20044;-76
2024/03/18 05:49:55;;;;;;;13.68;5.68;;;4.70;99.90;;;;;;5027750;28;20041;-76
2024/03/18 05:52:23;;;;;;;10.70;5.43;;;4.60;99.90;;;;;;5039173;28;20053;-75
2024/03/18 05:54:50;;;;;;;13.93;4.38;;;4.70;99.90;;;;;;5025505;28;20056;-76
2024/03/18 05:57:18;;;;;;;11.35;4.28;;;4.70;99.90;;;;;;5024894;28;20033;-75
2024/03/18 05:59:45;;;;;;;8.00;4.22;;;4.80;99.90;;;;;;5008483;28;20496;-75
2024/03/18 06:02:12;;;;;;;9.43;5.35;;;4.80;99.90;;;;;;5021017;28;20040;-76
2024/03/18 06:04:40;;;;;;;12.20;5.65;;;4.80;99.90;;;;;;5026771;28;20068;-75
2024/03/18 06:07:08;;;;;;;15.02;5.65;;;4.80;99.90;;;;;;5024084;28;20033;-75
2024/03/18 06:09:36;;;;;;;11.45;5.53;;;4.80;99.90;;;;;;5023020;28;20083;-76
2024/03/18 06:12:04;;;;;;;11.88;5.38;;;4.90;99.90;;;;;;5007142;28;20037;-75
2024/03/18 06:14:32;;;;;;;10.77;4.55;;;4.90;99.90;;;;;;5007369;28;20135;-76
2024/03/18 06:16:59;;;;;;;10.98;4.82;;;5.10;99.90;;;;;;5007291;28;20028;-75
2024/03/18 06:19:33;;;;;;;12.25;4.65;;;5.20;99.90;;;;;;5027054;28;20041;-75
2024/03/18 06:22:05;;;;;;;11.60;4.63;;;5.30;99.90;;;;;;5026369;28;20045;-75
2024/03/18 06:27:19;;;;;;;11.10;4.57;;;5.30;99.90;;;;;;5026580;28;20041;-75
2024/03/18 06:29:47;;;;;;;9.75;4.72;;;5.40;99.90;;;;;;5027437;28;20037;-74
2024/03/18 06:32:14;;;;;;;10.50;4.93;;;5.50;99.90;;;;;;5002082;28;20045;-76
2024/03/18 06:34:42;;;;;;;10.95;5.07;;;5.70;99.90;;;;;;5023998;28;20040;-76
2024/03/18 06:37:10;;;;;;;9.65;4.38;;;5.90;99.90;;;;;;5022566;28;20545;-74
2024/03/18 06:39:39;;;;;;;10.43;5.05;;;6.00;99.90;;;;;;5019921;28;20396;-75
2024/03/18 06:42:06;;;;;;;12.45;4.78;;;6.20;99.90;;;;;;5023440;28;20037;-77
2024/03/18 06:44:35;;;;;;;9.52;4.63;;;6.30;99.90;;;;;;5005837;28;20037;-75
2024/03/18 06:47:02;;;;;;;12.43;4.90;;;6.30;99.90;;;;;;5023276;28;20419;-75
2024/03/18 06:49:31;;;;;;;13.05;4.72;;;6.40;99.90;;;;;;5026842;28;20128;-75
2024/03/18 06:51:58;;;;;;;11.80;5.30;;;6.40;99.90;;;;;;5022561;28;20051;-74
2024/03/18 06:54:25;;;;;;;8.40;4.53;;;6.50;99.90;;;;;;5033730;28;20041;-75
2024/03/18 06:56:54;;;;;;;12.60;5.75;;;6.70;99.90;;;;;;5005551;28;20052;-75
2024/03/18 06:59:22;;;;;;;12.55;5.47;;;6.70;99.90;;;;;;5007336;28;20080;-74
2024/03/18 07:01:51;;;;;;;11.30;4.78;;;6.80;99.90;;;;;;5020673;28;20771;-76
2024/03/18 07:04:19;;;;;;;12.63;6.25;;;7.00;99.90;;;;;;5004251;28;20051;-75
2024/03/18 07:06:46;;;;;;;13.25;5.22;;;7.20;99.90;;;;;;5022559;28;20040;-74
2024/03/18 07:09:15;;;;;;;11.45;5.32;;;7.40;99.90;;;;;;5005595;28;20508;-75
2024/03/18 07:11:43;;;;;;;7.78;4.28;;;7.60;99.90;;;;;;5019600;28;20091;-75
2024/03/18 07:14:13;;;;;;;10.40;5.00;;;7.80;99.90;;;;;;5009818;28;20443;-76
2024/03/18 07:16:40;;;;;;;7.60;4.13;;;7.90;99.90;;;;;;5008950;28;20071;-74
2024/03/18 07:19:08;;;;;;;12.82;4.93;;;8.20;99.40;;;;;;5018718;28;20064;-76
2024/03/18 07:21:35;;;;;;;10.18;3.70;;;8.00;97.30;;;;;;5016072;28;20072;-76
2024/03/18 07:24:04;;;;;;;9.10;3.55;;;8.00;95.60;;;;;;5022981;28;20037;-75
2024/03/18 07:26:33;;;;;;;12.20;4.53;;;8.20;95.10;;;;;;5022451;28;20050;-74
2024/03/18 07:29:01;;;;;;;6.40;3.25;;;8.30;96.30;;;;;;4991442;28;20526;-74
2024/03/18 07:31:30;;;;;;;16.88;4.93;;;8.20;94.90;;;;;;5019882;28;20397;-74
2024/03/18 07:33:58;;;;;;;5.75;2.30;;;8.30;94.60;;;;;;5015045;28;20041;-75
2024/03/18 07:36:26;;;;;;;6.88;2.88;;;8.50;92.10;;;;;;5010610;28;20079;-75
2024/03/18 07:38:53;;;;;;;5.22;2.10;;;8.60;91.00;;;;;;5040797;28;20488;-75
2024/03/18 07:41:22;;;;;;;7.80;3.85;;;8.60;90.60;;;;;;5027392;28;20045;-75
2024/03/18 07:43:49;;;;;;;4.97;1.50;;;8.50;88.30;;;;;;5030424;28;20041;-75
2024/03/18 07:46:17;;;;;;;4.20;1.92;;;8.50;87.40;;;;;;5027063;28;20041;-74
2024/03/18 07:48:47;;;;;;;6.38;1.70;;;8.60;88.80;;;;;;5038258;28;20048;-75
2024/03/18 07:51:14;;;;;;;3.97;1.60;;;8.50;87.40;;;;;;4988141;28;20061;-75
2024/03/18 07:53:42;;;;;;;7.88;1.55;;;8.50;86.40;;;;;;5020015;28;20042;-75
2024/03/18 07:56:11;;;;;;;4.63;1.35;;;8.50;85.50;;;;;;5021718;28;20073;-75
2024/03/18 07:58:38;;;;;;;8.07;1.33;;;8.50;84.30;;;;;;5010967;28;20437;-76
2024/03/18 08:01:06;;;;;;;5.88;1.40;;;8.70;84.20;;;;;;5020769;28;20037;-74
2024/03/18 08:03:35;;;;;;;4.13;1.15;;;8.80;84.70;;;;;;4994427;28;20574;-75
2024/03/18 08:06:10;;;;;;;5.00;1.13;;;8.90;83.50;;;;;;5023003;28;20633;-74
2024/03/18 08:08:38;;;;;;;3.97;0.98;;;8.90;82.90;;;;;;5004315;28;20521;-75
2024/03/18 08:11:05;;;;;;;4.53;1.55;;;8.90;82.60;;;;;;5019375;28;20034;-75
2024/03/18 08:13:33;;;;;;;4.72;1.52;;;8.90;82.20;;;;;;5015691;28;20053;-76
2024/03/18 08:16:00;;;;;;;3.00;1.35;;;9.20;83.60;;;;;;5007454;28;20037;-75
2024/03/18 08:18:28;;;;;;;4.20;1.65;;;9.20;83.00;;;;;;5022845;28;20041;-75
2024/03/18 08:20:55;;;;;;;5.32;1.40;;;9.00;81.20;;;;;;5024391;28;20104;-76
2024/03/18 08:23:24;;;;;;;5.78;1.80;;;9.20;82.50;;;;;;5029729;28;20056;-75
2024/03/18 08:25:51;;;;;;;5.28;2.05;;;9.30;82.00;;;;;;5001958;28;20111;-76
2024/03/18 08:28:19;;;;;;;5.88;1.88;;;9.30;81.90;;;;;;5035207;28;20040;-75
2024/03/18 08:30:46;;;;;;;3.42;1.60;;;9.50;82.60;;;;;;5008088;28;20046;-76
2024/03/18 08:33:14;;;;;;;5.28;1.38;;;9.50;81.60;;;;;;5024223;28;20056;-75
2024/03/18 08:35:41;;;;;;;6.80;1.48;;;9.40;81.00;;;;;;5023599;28;20068;-78
2024/03/18 08:38:09;;;;;;;7.50;1.42;;;9.50;81.00;;;;;;5029546;28;20041;-79
2024/03/18 08:40:37;;;;;;;3.65;1.88;;;9.50;81.90;;;;;;5026143;28;21112;-79
2024/03/18 08:43:05;;;;;;;5.18;2.22;;;9.50;80.90;;;;;;5020500;28;20124;-78
2024/03/18 08:45:32;;;;;;;6.28;1.30;;;9.70;80.80;;;;;;5013477;28;20042;-80
2024/03/18 08:47:59;;;;;;;2.00;0.85;;;9.70;79.90;;;;;;5021590;28;20045;-77
2024/03/18 08:50:27;;;;;;;5.82;1.50;;;9.80;79.70;;;;;;5023427;28;20428;-78
2024/03/18 08:52:54;;;;;;;4.82;1.25;;;9.80;78.70;;;;;;5021037;28;20492;-79
2024/03/18 08:55:22;;;;;;;3.75;1.00;;;9.80;78.90;;;;;;5025015;28;20042;-78
2024/03/18 08:57:51;;;;;;;5.00;1.85;;;9.60;78.90;;;;;;5026950;28;20034;-77
2024/03/18 09:00:19;;;;;;;6.43;2.45;;;9.70;78.00;;;;;;5008058;28;20046;-78
2024/03/18 09:02:46;;;;;;;5.15;1.35;;;9.90;79.10;;;;;;5042503;28;20074;-80
2024/03/18 09:05:14;;;;;;;3.67;1.02;;;9.80;77.20;;;;;;5032316;28;20076;-78
2024/03/18 09:07:41;;;;;;;6.57;1.27;;;10.20;78.60;;;;;;5023485;28;20038;-78
2024/03/18 09:10:13;;;;;;;8.10;1.50;;;10.10;77.20;;;;;;5024510;28;20053;-78
2024/03/18 09:12:41;;;;;;;3.43;1.10;;;10.10;78.00;;;;;;5023467;28;20065;-79
2024/03/18 09:15:11;;;;;;;6.07;1.75;;;10.20;76.80;;;;;;5023097;28;20045;-78
2024/03/18 09:17:38;;;;;;;6.60;1.50;;;10.10;77.20;;;;;;5028547;28;20038;-79
2024/03/18 09:20:09;;;;;;;6.55;1.80;;;10.20;77.10;;;;;;5030280;28;20042;-78
2024/03/18 09:22:37;;;;;;;4.82;1.20;;;10.40;77.10;;;;;;5013334;28;20105;-78
2024/03/18 09:25:09;;;;;;;5.45;1.40;;;10.40;77.10;;;;;;5026999;28;20107;-79
2024/03/18 09:27:37;;;;;;;4.20;1.35;;;10.20;75.50;;;;;;5035512;28;20064;-78
2024/03/18 09:30:05;;;;;;;4.05;1.40;;;10.40;77.30;;;;;;5008688;28;20052;-78
2024/03/18 09:32:34;;;;;;;3.25;1.52;;;10.60;75.40;;;;;;5021681;28;20053;-77
2024/03/18 09:35:02;;;;;;;6.05;1.45;;;10.50;75.70;;;;;;5021682;28;20043;-79
2024/03/18 09:37:30;;;;;;;4.30;1.95;;;10.60;74.90;;;;;;4985148;28;20049;-77
2024/03/18 09:39:58;;;;;;;6.20;1.90;;;10.70;75.90;;;;;;5022647;28;20050;-78
2024/03/18 09:42:28;;;;;;;5.13;1.83;;;10.80;76.00;;;;;;5034166;28;20052;-77
2024/03/18 09:44:56;;;;;;;5.18;1.77;;;10.70;75.20;;;;;;5019876;28;20045;-79
2024/03/18 09:47:25;;;;;;;7.00;1.80;;;10.80;75.40;;;;;;5005510;28;20052;-78
2024/03/18 09:49:55;;;;;;;4.22;1.48;;;10.60;74.70;;;;;;5007990;28;20456;-77
2024/03/18 09:52:23;;;;;;;6.03;1.50;;;10.80;75.40;;;;;;5021218;28;20049;-79
2024/03/18 09:54:51;;;;;;;6.03;1.80;;;10.80;74.10;;;;;;5040133;28;20501;-77
2024/03/18 09:57:24;;;;;;;3.20;1.38;;;10.80;75.40;;;;;;5007926;28;20524;-79
2024/03/18 09:59:52;;;;;;;5.85;1.77;;;10.80;74.80;;;;;;5023085;28;20040;-80
2024/03/18 10:02:19;;;;;;;5.53;1.90;;;11.00;75.00;;;;;;5029141;28;20073;-81
2024/03/18 10:04:48;;;;;;;3.30;1.38;;;11.10;74.10;;;;;;5023121;28;20034;-77
2024/03/18 10:07:18;;;;;;;3.22;1.20;;;11.00;73.30;;;;;;4980673;28;20072;-77
2024/03/18 10:09:47;;;;;;;2.08;1.17;;;11.00;74.10;;;;;;5026567;28;20041;-77
2024/03/18 10:12:15;;;;;;;3.75;1.15;;;11.00;73.90;;;;;;5048958;28;20124;-79
2024/03/18 10:14:44;;;;;;;5.97;1.85;;;11.00;73.70;;;;;;5025787;28;20049;-78
2024/03/18 10:17:15;;;;;;;4.82;1.80;;;11.10;74.10;;;;;;5020174;28;20587;-79
2024/03/18 10:19:43;;;;;;;4.80;1.45;;;11.20;73.20;;;;;;5028416;28;20047;-79
2024/03/18 10:22:13;;;;;;;5.90;1.77;;;11.10;73.10;;;;;;5005561;28;20064;-77
2024/03/18 10:24:42;;;;;;;5.05;1.23;;;11.00;72.00;;;;;;5018865;28;20053;-77
2024/03/18 10:27:10;;;;;;;5.45;1.38;;;11.30;72.60;;;;;;5007987;28;20050;-77
2024/03/18 10:29:38;;;;;;;7.75;2.25;;;11.30;72.40;;;;;;5028627;28;20045;-78
2024/03/18 10:32:15;;;;;;;8.77;2.60;;;11.30;71.80;;;;;;5009204;28;20041;-77
2024/03/18 10:34:42;;;;;;;7.45;1.70;;;11.20;71.40;;;;;;5018007;28;20045;-77
2024/03/18 10:37:17;;;;;;;5.80;2.35;;;11.40;71.50;;;;;;5002940;28;20140;-77
2024/03/18 10:39:51;;;;;;;6.18;1.60;;;11.30;71.90;;;;;;5017111;28;20169;-78
2024/03/18 10:42:21;;;;;;;6.10;1.38;;;11.40;71.90;;;;;;5003347;28;20254;-77
2024/03/18 10:44:57;;;;;;;4.80;1.45;;;11.60;72.30;;;;;;5018830;28;20080;-78
2024/03/18 10:47:25;;;;;;;2.90;1.10;;;11.40;70.40;;;;;;5006072;28;20054;-78
2024/03/18 10:49:55;;;;;;;2.22;0.80;;;11.50;71.30;;;;;;5021894;28;20034;-77
2024/03/18 10:52:24;;;;;;;4.65;1.52;;;11.60;70.50;;;;;;5020924;28;20057;-77
2024/03/18 10:54:54;;;;;;;4.60;1.30;;;11.60;70.10;;;;;;5006174;28;20076;-77
2024/03/18 10:57:22;;;;;;;5.55;1.38;;;11.70;71.50;;;;;;5028165;28;20038;-77
2024/03/18 10:59:50;;;;;;;2.33;1.05;;;11.80;71.00;;;;;;5031640;28;20058;-77
2024/03/18 11:02:17;;;;;;;5.65;1.60;;;12.00;70.70;;;;;;5031476;28;20053;-77
2024/03/18 11:04:47;;;;;;;5.53;2.03;;;12.10;70.00;;;;;;5022376;28;20050;-77
2024/03/18 11:07:14;;;;;;;3.17;1.05;;;12.20;69.70;;;;;;5034959;28;20034;-76
2024/03/18 11:09:43;;;;;;;7.07;1.98;;;12.10;68.10;;;;;;5045910;28;20041;-77
2024/03/18 11:12:32;;;;;;;5.13;1.83;;;11.90;68.90;;;;;;5013934;28;20050;-80
2024/03/18 11:15:07;;;;;;;3.10;1.20;;;11.90;69.90;;;;;;5047603;28;20060;-76
2024/03/18 11:17:41;;;;;;;6.38;1.35;;;12.10;71.10;;;;;;5043323;28;20109;-80
2024/03/18 11:20:14;;;;;;;4.70;1.50;;;12.00;69.10;;;;;;5035055;28;20069;-78
2024/03/18 11:22:46;;;;;;;2.80;1.42;;;12.00;69.30;;;;;;5017805;28;20045;-75
2024/03/18 11:25:19;;;;;;;5.07;1.40;;;11.90;69.50;;;;;;5037482;28;20075;-79
2024/03/18 11:27:51;;;;;;;5.05;1.63;;;11.80;68.20;;;;;;5039277;28;20053;-80
2024/03/18 11:30:26;;;;;;;5.75;1.27;;;11.70;68.70;;;;;;5021774;28;20052;-79
2024/03/18 11:32:54;;;;;;;7.20;1.55;;;12.00;70.20;;;;;;5034149;28;20044;-79
2024/03/18 11:35:21;;;;;;;4.88;1.40;;;11.80;68.20;;;;;;5046853;28;20509;-78
2024/03/18 11:37:49;;;;;;;3.35;0.88;;;11.70;68.30;;;;;;5028882;28;20049;-77
2024/03/18 11:40:17;;;;;;;5.82;1.48;;;12.00;68.40;;;;;;5008824;28;20060;-78
2024/03/18 11:42:46;;;;;;;1.20;0.50;;;12.10;67.20;;;;;;5028700;28;20038;-80
2024/03/18 11:45:19;;;;;;;4.07;0.90;;;12.20;66.50;;;;;;5014739;28;20056;-78
2024/03/18 11:47:48;;;;;;;3.70;1.27;;;12.00;66.70;;;;;;5037811;28;20037;-80
2024/03/18 11:50:16;;;;;;;4.90;0.80;;;12.00;66.40;;;;;;5009938;28;20089;-80
2024/03/18 11:52:44;;;;;;;3.90;0.98;;;12.10;65.60;;;;;;5044479;28;20025;-78
2024/03/18 11:55:15;;;;;;;3.38;0.80;;;12.30;65.90;;;;;;5039306;28;20042;-78
2024/03/18 11:57:44;;;;;;;7.15;1.55;;;12.20;65.00;;;;;;5028553;28;20596;-79
2024/03/18 12:00:13;;;;;;;5.82;0.98;;;12.40;65.70;;;;;;5033214;28;20049;-79
2024/03/18 12:02:43;;;;;;;3.15;0.65;;;12.40;64.30;;;;;;5028302;28;20068;-81
2024/03/18 12:05:11;;;;;;;3.38;0.75;;;12.20;64.00;;;;;;5027830;28;20072;-80
2024/03/18 12:07:40;;;;;;;2.50;0.60;;;12.50;64.50;;;;;;5005770;28;20606;-76
2024/03/18 12:10:09;;;;;;;3.50;0.75;;;12.70;64.00;;;;;;5019674;28;20647;-74
2024/03/18 12:12:39;;;;;;;2.10;0.70;;;12.70;63.80;;;;;;5018244;28;20061;-76
2024/03/18 12:15:07;;;;;;;1.55;0.75;;;12.50;63.80;;;;;;5005564;28;20053;-76
2024/03/18 12:17:34;;;;;;;3.38;0.93;;;12.60;63.80;;;;;;5019942;28;20034;-77
2024/03/18 12:20:06;;;;;;;3.65;0.98;;;12.60;64.40;;;;;;5007321;28;20049;-76
2024/03/18 12:22:34;;;;;;;4.15;0.80;;;12.50;64.10;;;;;;5028376;28;20073;-75
2024/03/18 12:30:43;;;;;;;2.65;0.52;;;12.60;62.20;;;;;;5021598;28;20500;-76
2024/03/18 12:33:13;;;;;;;2.17;0.55;;;12.70;62.00;;;;;;5015890;28;20404;-75
2024/03/18 12:35:42;;;;;;;3.45;0.90;;;12.50;61.80;;;;;;5007248;28;20455;-74
2024/03/18 12:38:11;;;;;;;3.95;1.10;;;12.50;63.40;;;;;;5007225;28;20106;-75
2024/03/18 12:40:39;;;;;;;4.90;1.00;;;12.60;64.70;;;;;;5023594;28;20050;-76
2024/03/18 12:43:09;;;;;;;2.08;0.63;;;12.50;63.90;;;;;;5019492;28;20049;-77
2024/03/18 12:45:37;;;;;;;3.78;0.70;;;12.70;64.30;;;;;;4998585;28;20045;-74
2024/03/18 12:48:07;;;;;;;2.70;1.13;;;12.70;63.20;;;;;;5007903;28;20056;-76
2024/03/18 12:50:35;;;;;;;2.90;1.00;;;12.70;63.00;;;;;;5022684;28;20137;-77
2024/03/18 12:53:04;;;;;;;4.32;0.73;;;12.80;62.70;;;;;;5020549;28;20574;-75
2024/03/18 12:55:31;;;;;;;2.55;0.55;;;12.80;61.20;;;;;;5024322;28;20514;-73
2024/03/18 12:57:59;;;;;;;3.67;0.60;;;12.90;60.90;;;;;;5026354;28;20064;-76
2024/03/18 13:00:26;;;;;;;17.08;2.20;;;12.70;61.00;;;;;;5003577;28;20036;-75
2024/03/18 13:02:54;;;;;;;4.25;0.70;;;12.70;61.30;;;;;;5024144;28;20574;-75
2024/03/18 13:05:21;;;;;;;2.47;0.80;;;12.60;60.80;;;;;;5019119;28;20053;-74